Time;durP1;ratioP1;P1;durP2;ratioP2;P2;SDS_P1;SDS_P2;PMS_P1;PMS_P2;Temp;Humidity;BMP_temperature;BMP_pressure;BME280_temperature;BME280_humidity;BME280_pressure;Samples;Min_cycle;Max_cycle;Signal;HPM_P1;HPM_P2
2022/03/01 00:02:23;;;;;;;28.52;16.63;;;;;;;;;;5052800;28;20603;-71
2022/03/01 00:04:49;;;;;;;22.95;14.20;;;;;;;;;;5052352;28;20056;-67
2022/03/01 00:07:15;;;;;;;22.90;14.00;;;;;;;;;;5054620;28;20135;-68
2022/03/01 00:09:41;;;;;;;32.08;21.20;;;;;;;;;;5056044;28;20028;-69
2022/03/01 00:12:07;;;;;;;27.80;18.33;;;;;;;;;;5056075;28;20367;-66
2022/03/01 00:14:33;;;;;;;26.05;13.48;;;;;;;;;;5056054;28;20136;-71
2022/03/01 00:16:59;;;;;;;77.53;60.53;;;;;;;;;;5056272;28;20363;-71
2022/03/01 00:19:28;;;;;;;30.10;23.02;;;;;;;;;;5056211;28;20031;-70
2022/03/01 00:21:54;;;;;;;31.10;24.85;;;;;;;;;;5055929;28;20049;-67
2022/03/01 00:24:20;;;;;;;37.53;27.02;;;;;;;;;;5056425;28;20044;-70
2022/03/01 00:26:46;;;;;;;30.63;22.35;;;;;;;;;;5056092;28;20028;-70
2022/03/01 00:29:12;;;;;;;24.17;15.90;;;;;;;;;;5055715;28;20370;-72
2022/03/01 00:31:38;;;;;;;20.60;11.27;;;;;;;;;;5055956;28;20025;-68
2022/03/01 00:34:05;;;;;;;15.38;9.35;;;;;;;;;;5055940;28;20487;-71
2022/03/01 00:36:32;;;;;;;18.48;9.32;;;;;;;;;;5055589;28;20100;-70
2022/03/01 00:38:58;;;;;;;17.27;9.98;;;;;;;;;;5055568;28;20036;-71
2022/03/01 00:41:24;;;;;;;17.98;9.70;;;;;;;;;;5055531;28;20036;-67
2022/03/01 00:43:51;;;;;;;16.67;10.00;;;;;;;;;;5055521;28;20029;-70
2022/03/01 00:46:17;;;;;;;22.35;16.15;;;;;;;;;;5055449;28;20477;-71
2022/03/01 00:48:43;;;;;;;21.35;13.20;;;;;;;;;;5055292;28;20057;-71
2022/03/01 00:51:09;;;;;;;21.52;12.50;;;;;;;;;;5055929;28;20053;-70
2022/03/01 00:53:35;;;;;;;21.17;11.85;;;;;;;;;;5055326;28;20052;-68
2022/03/01 00:56:04;;;;;;;17.55;11.90;;;;;;;;;;5055198;28;20025;-67
2022/03/01 00:58:31;;;;;;;17.75;10.40;;;;;;;;;;5055243;28;20091;-70
2022/03/01 01:00:57;;;;;;;16.75;8.68;;;;;;;;;;5055485;28;20024;-69
2022/03/01 01:03:23;;;;;;;16.17;9.25;;;;;;;;;;5055065;28;20036;-69
2022/03/01 01:05:49;;;;;;;21.17;14.48;;;;;;;;;;5054647;28;20045;-72
2022/03/01 01:08:15;;;;;;;26.02;13.65;;;;;;;;;;5055040;28;20425;-67
2022/03/01 01:10:41;;;;;;;21.02;12.35;;;;;;;;;;5054888;28;20449;-69
2022/03/01 01:13:07;;;;;;;22.80;14.50;;;;;;;;;;5054949;28;20028;-72
2022/03/01 01:15:33;;;;;;;19.35;11.38;;;;;;;;;;5054854;28;20079;-70
2022/03/01 01:17:59;;;;;;;18.58;12.07;;;;;;;;;;5054266;28;20470;-67
2022/03/01 01:20:25;;;;;;;18.50;10.98;;;;;;;;;;5054515;28;20070;-70
2022/03/01 01:22:52;;;;;;;25.23;16.50;;;;;;;;;;5055112;28;20435;-68
2022/03/01 01:25:23;;;;;;;22.77;15.23;;;;;;;;;;5054992;28;20075;-71
2022/03/01 01:27:49;;;;;;;;;;;;;;;;;;5055124;28;20500;-70
2022/03/01 01:30:16;;;;;;;19.30;10.35;;;;;;;;;;5055049;28;19915;-70
2022/03/01 01:32:43;;;;;;;22.08;11.38;;;;;;;;;;5054574;28;20025;-70
2022/03/01 01:35:10;;;;;;;23.90;11.55;;;;;;;;;;5054759;28;20021;-67
2022/03/01 01:37:36;;;;;;;19.95;11.68;;;;;;;;;;5054464;28;20024;-66
2022/03/01 01:40:04;;;;;;;24.40;15.75;;;;;;;;;;5054436;28;20109;-69
2022/03/01 01:42:30;;;;;;;22.63;16.40;;;;;;;;;;5054949;28;20110;-72
2022/03/01 01:44:56;;;;;;;23.90;13.50;;;;;;;;;;5054612;28;20033;-69
2022/03/01 01:47:22;;;;;;;19.33;11.18;;;;;;;;;;5054828;28;20039;-70
2022/03/01 01:49:48;;;;;;;24.13;12.07;;;;;;;;;;5054161;28;20120;-71
2022/03/01 01:52:14;;;;;;;19.52;12.70;;;;;;;;;;5054445;28;20049;-68
2022/03/01 01:54:40;;;;;;;22.92;13.82;;;;;;;;;;5054078;28;20515;-70
2022/03/01 01:57:17;;;;;;;23.20;12.93;;;;;;;;;;5054108;28;20017;-69
2022/03/01 01:59:43;;;;;;;28.00;13.68;;;;;;;;;;5054336;28;20082;-69
2022/03/01 02:02:13;;;;;;;25.70;13.38;;;;;;;;;;5054540;28;20071;-69
2022/03/01 02:04:39;;;;;;;22.85;13.75;;;;;;;;;;5053756;28;20076;-68
2022/03/01 02:07:06;;;;;;;25.45;13.35;;;;;;;;;;5054174;28;20036;-71
2022/03/01 02:09:32;;;;;;;21.80;13.57;;;;;;;;;;5053802;28;20512;-67
2022/03/01 02:11:58;;;;;;;21.27;12.38;;;;;;;;;;5053862;28;20021;-69
2022/03/01 02:14:24;;;;;;;28.20;13.13;;;;;;;;;;5054078;28;20029;-69
2022/03/01 02:16:50;;;;;;;22.45;14.48;;;;;;;;;;5053769;28;20481;-69
2022/03/01 02:19:16;;;;;;;27.80;14.93;;;;;;;;;;5053990;28;20036;-69
2022/03/01 02:21:48;;;;;;;29.35;16.17;;;;;;;;;;5053671;28;20040;-70
2022/03/01 02:24:15;;;;;;;25.83;14.15;;;;;;;;;;5053613;28;20029;-70
2022/03/01 02:26:41;;;;;;;27.23;13.48;;;;;;;;;;5053560;28;20028;-69
2022/03/01 02:29:07;;;;;;;26.85;14.70;;;;;;;;;;5053545;28;20025;-70
2022/03/01 02:31:33;;;;;;;27.63;14.95;;;;;;;;;;5053720;28;20381;-69
2022/03/01 02:33:59;;;;;;;33.20;15.38;;;;;;;;;;5053474;28;20074;-69
2022/03/01 02:36:25;;;;;;;34.88;16.13;;;;;;;;;;5053688;28;20075;-69
2022/03/01 02:38:51;;;;;;;55.33;26.27;;;;;;;;;;5053734;28;20036;-67
2022/03/01 02:41:18;;;;;;;51.17;31.67;;;;;;;;;;5053605;28;20021;-71
2022/03/01 02:43:43;;;;;;;48.67;27.08;;;;;;;;;;5053322;28;20083;-71
2022/03/01 02:46:10;;;;;;;32.40;16.83;;;;;;;;;;5053284;28;20485;-70
2022/03/01 02:48:36;;;;;;;35.38;16.63;;;;;;;;;;5053162;28;20033;-71
2022/03/01 02:51:02;;;;;;;31.10;16.80;;;;;;;;;;5053247;28;20542;-71
2022/03/01 02:53:28;;;;;;;27.83;15.70;;;;;;;;;;5053536;28;20048;-69
2022/03/01 02:55:54;;;;;;;35.97;16.75;;;;;;;;;;5053098;28;20029;-69
2022/03/01 02:58:20;;;;;;;34.45;16.27;;;;;;;;;;5053151;28;20170;-72
2022/03/01 03:00:48;;;;;;;34.35;15.52;;;;;;;;;;5053093;28;20029;-69
2022/03/01 03:03:14;;;;;;;36.33;17.25;;;;;;;;;;5053378;28;20025;-68
2022/03/01 03:05:40;;;;;;;31.35;15.98;;;;;;;;;;5053014;28;20131;-68
2022/03/01 03:08:07;;;;;;;41.88;18.27;;;;;;;;;;5053604;28;20458;-67
2022/03/01 03:10:33;;;;;;;35.53;17.50;;;;;;;;;;5053269;28;20469;-69
2022/03/01 03:13:03;;;;;;;39.55;18.50;;;;;;;;;;5053082;28;20554;-72
2022/03/01 03:15:29;;;;;;;36.88;18.20;;;;;;;;;;5053042;28;20032;-67
2022/03/01 03:17:55;;;;;;;39.35;17.80;;;;;;;;;;5052963;28;20021;-70
2022/03/01 03:20:22;;;;;;;39.67;18.60;;;;;;;;;;5052974;28;20025;-70
2022/03/01 03:22:48;;;;;;;37.60;18.73;;;;;;;;;;5052943;28;20104;-71
2022/03/01 03:25:15;;;;;;;37.35;19.00;;;;;;;;;;5052927;28;20051;-72
2022/03/01 03:27:41;;;;;;;36.58;18.00;;;;;;;;;;5053186;28;20032;-69
2022/03/01 03:30:08;;;;;;;38.13;19.23;;;;;;;;;;5052837;28;20366;-70
2022/03/01 03:32:34;;;;;;;45.13;20.13;;;;;;;;;;5053124;28;20017;-72
2022/03/01 03:35:00;;;;;;;35.72;19.05;;;;;;;;;;5052789;28;20032;-69
2022/03/01 03:37:27;;;;;;;37.78;18.00;;;;;;;;;;5052773;28;20473;-71
2022/03/01 03:39:53;;;;;;;40.70;17.17;;;;;;;;;;5052791;28;20403;-72
2022/03/01 03:42:19;;;;;;;37.50;17.45;;;;;;;;;;5054798;28;20029;-68
2022/03/01 03:44:45;;;;;;;41.95;18.58;;;;;;;;;;5056874;28;20384;-71
2022/03/01 03:47:11;;;;;;;39.35;17.85;;;;;;;;;;5056592;28;20032;-68
2022/03/01 03:49:37;;;;;;;37.70;17.95;;;;;;;;;;5056980;28;20079;-69
2022/03/01 03:52:04;;;;;;;39.97;18.50;;;;;;;;;;5056469;28;20067;-71
2022/03/01 03:54:30;;;;;;;34.42;18.30;;;;;;;;;;5056365;28;20473;-72
2022/03/01 03:56:56;;;;;;;45.72;19.88;;;;;;;;;;5056378;28;20028;-69
2022/03/01 03:59:22;;;;;;;39.42;19.67;;;;;;;;;;5056642;28;20032;-68
2022/03/01 04:01:48;;;;;;;44.10;18.95;;;;;;;;;;5056296;28;20070;-68
2022/03/01 04:04:14;;;;;;;46.38;19.45;;;;;;;;;;5056073;28;20127;-71
2022/03/01 04:06:40;;;;;;;34.92;17.40;;;;;;;;;;5056265;28;20117;-71
2022/03/01 04:09:06;;;;;;;39.58;19.00;;;;;;;;;;5056414;28;20029;-68
2022/03/01 04:11:33;;;;;;;35.70;19.00;;;;;;;;;;5056111;28;20036;-70
2022/03/01 04:13:59;;;;;;;42.80;19.38;;;;;;;;;;5056100;28;20111;-71
2022/03/01 04:16:27;;;;;;;40.25;19.00;;;;;;;;;;5056027;28;20025;-68
2022/03/01 04:18:53;;;;;;;36.85;18.90;;;;;;;;;;5055926;28;20028;-67
2022/03/01 04:21:19;;;;;;;40.95;20.27;;;;;;;;;;5055933;28;20105;-70
2022/03/01 04:23:46;;;;;;;44.72;19.05;;;;;;;;;;5056157;28;20053;-70
2022/03/01 04:26:12;;;;;;;40.08;18.42;;;;;;;;;;5055831;28;20032;-68
2022/03/01 04:28:37;;;;;;;37.45;17.83;;;;;;;;;;5056011;28;20032;-69
2022/03/01 04:31:03;;;;;;;40.92;19.05;;;;;;;;;;5056264;28;20017;-70
2022/03/01 04:33:29;;;;;;;44.00;19.33;;;;;;;;;;5055686;28;20021;-70
2022/03/01 04:35:59;;;;;;;42.97;19.48;;;;;;;;;;5055666;28;20028;-70
2022/03/01 04:38:25;;;;;;;41.50;20.63;;;;;;;;;;5055897;28;20036;-68
2022/03/01 04:40:52;;;;;;;39.65;20.02;;;;;;;;;;5056084;28;20029;-68
2022/03/01 04:43:19;;;;;;;39.78;19.60;;;;;;;;;;5056043;28;20029;-69
2022/03/01 04:45:45;;;;;;;38.97;18.20;;;;;;;;;;5056012;28;20112;-68
2022/03/01 04:48:11;;;;;;;45.58;21.40;;;;;;;;;;5055988;28;20029;-68
2022/03/01 04:50:37;;;;;;;40.17;20.05;;;;;;;;;;5055315;28;20021;-69
2022/03/01 04:53:03;;;;;;;41.40;19.40;;;;;;;;;;5055141;28;20033;-67
2022/03/01 04:55:30;;;;;;;42.22;20.55;;;;;;;;;;5055238;28;20037;-67
2022/03/01 04:57:56;;;;;;;43.47;19.13;;;;;;;;;;5055547;28;20032;-67
2022/03/01 05:00:22;;;;;;;35.55;18.70;;;;;;;;;;5055201;28;20025;-66
2022/03/01 05:02:48;;;;;;;48.90;21.52;;;;;;;;;;5055178;28;20025;-67
2022/03/01 05:05:14;;;;;;;45.90;21.65;;;;;;;;;;5055041;28;20037;-70
2022/03/01 05:07:41;;;;;;;43.88;21.50;;;;;;;;;;5055103;28;20489;-68
2022/03/01 05:10:08;;;;;;;42.65;21.25;;;;;;;;;;5055247;28;20021;-72
2022/03/01 05:12:45;;;;;;;41.97;20.45;;;;;;;;;;5054971;28;20060;-67
2022/03/01 05:15:11;;;;;;;42.13;21.05;;;;;;;;;;5055230;28;20092;-68
2022/03/01 05:17:37;;;;;;;35.13;17.63;;;;;;;;;;5054901;28;20029;-69
2022/03/01 05:20:04;;;;;;;39.78;19.23;;;;;;;;;;5054839;28;20025;-71
2022/03/01 05:22:30;;;;;;;46.28;19.25;;;;;;;;;;5036892;28;20029;-70
2022/03/01 05:24:56;;;;;;;38.08;19.30;;;;;;;;;;5055008;28;20373;-70
2022/03/01 05:27:22;;;;;;;38.40;19.23;;;;;;;;;;5054693;28;20029;-72
2022/03/01 05:29:48;;;;;;;41.28;17.65;;;;;;;;;;5054561;28;20025;-67
2022/03/01 05:32:14;;;;;;;37.08;17.73;;;;;;;;;;5054592;28;20072;-70
2022/03/01 05:34:40;;;;;;;42.22;17.15;;;;;;;;;;5054535;28;20021;-69
2022/03/01 05:37:06;;;;;;;37.67;17.63;;;;;;;;;;5054816;28;20021;-70
2022/03/01 05:39:32;;;;;;;31.10;17.05;;;;;;;;;;5054464;28;20025;-69
2022/03/01 05:41:58;;;;;;;38.65;20.13;;;;;;;;;;5054471;28;20029;-68
2022/03/01 05:44:24;;;;;;;37.90;17.52;;;;;;;;;;5054358;28;20025;-68
2022/03/01 05:46:50;;;;;;;30.90;16.17;;;;;;;;;;5054317;28;20107;-72
2022/03/01 05:49:16;;;;;;;37.70;20.38;;;;;;;;;;5054450;28;20036;-68
2022/03/01 05:51:42;;;;;;;39.08;23.60;;;;;;;;;;5054533;28;20104;-70
2022/03/01 05:54:08;;;;;;;40.25;21.27;;;;;;;;;;5054086;28;20450;-70
2022/03/01 05:56:34;;;;;;;42.55;25.20;;;;;;;;;;5054129;28;20063;-70
2022/03/01 05:59:00;;;;;;;35.88;19.45;;;;;;;;;;5054333;28;20059;-69
2022/03/01 06:01:26;;;;;;;35.92;18.20;;;;;;;;;;5054018;28;20432;-69
2022/03/01 06:03:52;;;;;;;38.20;19.30;;;;;;;;;;5053642;28;20070;-69
2022/03/01 06:06:19;;;;;;;33.30;16.55;;;;;;;;;;5054204;28;20037;-66
2022/03/01 06:08:45;;;;;;;33.45;18.02;;;;;;;;;;5035968;28;20036;-70
2022/03/01 06:11:11;;;;;;;33.42;17.80;;;;;;;;;;5053848;28;20025;-67
2022/03/01 06:13:39;;;;;;;30.83;16.27;;;;;;;;;;5054123;28;20017;-68
2022/03/01 06:16:06;;;;;;;30.73;16.38;;;;;;;;;;5035849;28;20397;-67
2022/03/01 06:18:32;;;;;;;31.67;16.15;;;;;;;;;;5053744;28;20021;-70
2022/03/01 06:20:59;;;;;;;42.40;22.83;;;;;;;;;;5053956;28;20028;-71
2022/03/01 06:23:25;;;;;;;33.28;20.50;;;;;;;;;;5053901;28;20017;-69
2022/03/01 06:25:51;;;;;;;37.88;21.23;;;;;;;;;;5053922;28;20029;-71
2022/03/01 06:28:17;;;;;;;34.10;17.02;;;;;;;;;;5053562;28;20024;-67
2022/03/01 06:30:43;;;;;;;31.65;16.63;;;;;;;;;;5053414;28;20025;-70
2022/03/01 06:33:09;;;;;;;35.08;16.25;;;;;;;;;;5053513;28;20032;-69
2022/03/01 06:35:35;;;;;;;27.13;14.30;;;;;;;;;;5053499;28;20070;-67
2022/03/01 06:38:01;;;;;;;30.42;15.13;;;;;;;;;;5053447;28;20021;-69
2022/03/01 06:40:28;;;;;;;31.50;14.40;;;;;;;;;;5053703;28;20027;-69
2022/03/01 06:42:55;;;;;;;25.98;14.05;;;;;;;;;;5053317;28;20021;-67
2022/03/01 06:45:21;;;;;;;34.22;16.05;;;;;;;;;;5053275;28;20025;-72
2022/03/01 06:47:47;;;;;;;27.73;15.23;;;;;;;;;;5053281;28;20508;-71
2022/03/01 06:50:13;;;;;;;24.85;13.95;;;;;;;;;;5053221;28;20079;-69
2022/03/01 06:52:39;;;;;;;25.90;14.27;;;;;;;;;;5053563;28;20053;-71
2022/03/01 06:55:06;;;;;;;26.38;14.50;;;;;;;;;;5053118;28;20413;-69
2022/03/01 06:57:32;;;;;;;23.58;13.18;;;;;;;;;;5053194;28;20036;-70
2022/03/01 06:59:58;;;;;;;27.42;13.88;;;;;;;;;;5053164;28;20035;-68
2022/03/01 07:02:26;;;;;;;25.40;13.52;;;;;;;;;;5053204;28;20101;-71
2022/03/01 07:04:53;;;;;;;28.65;16.23;;;;;;;;;;5052923;28;20098;-69
2022/03/01 07:07:19;;;;;;;23.35;13.70;;;;;;;;;;5053355;28;20508;-70
2022/03/01 07:09:45;;;;;;;30.85;17.90;;;;;;;;;;5035079;28;20435;-67
2022/03/01 07:12:11;;;;;;;29.67;13.63;;;;;;;;;;5053290;28;20489;-68
2022/03/01 07:14:37;;;;;;;28.83;15.32;;;;;;;;;;5053060;28;20053;-68
2022/03/01 07:17:03;;;;;;;27.48;14.73;;;;;;;;;;5054452;28;20139;-68
2022/03/01 07:19:29;;;;;;;27.85;15.50;;;;;;;;;;5057126;28;20029;-71
2022/03/01 07:21:55;;;;;;;31.02;17.48;;;;;;;;;;5057342;28;20410;-71
2022/03/01 07:24:21;;;;;;;31.45;18.05;;;;;;;;;;5056956;28;20025;-68
2022/03/01 07:26:47;;;;;;;32.42;20.17;;;;;;;;;;5057004;28;20021;-69
2022/03/01 07:29:13;;;;;;;37.38;19.00;;;;;;;;;;5056845;28;20121;-67
2022/03/01 07:31:39;;;;;;;29.00;15.45;;;;;;;;;;5057142;28;20014;-69
2022/03/01 07:34:05;;;;;;;27.60;16.13;;;;;;;;;;5056873;28;20025;-68
2022/03/01 07:36:31;;;;;;;27.23;15.25;;;;;;;;;;5056871;28;20021;-68
2022/03/01 07:38:57;;;;;;;28.65;15.45;;;;;;;;;;5056754;28;20474;-68
2022/03/01 07:41:23;;;;;;;24.48;14.35;;;;;;;;;;5057014;28;20064;-68
2022/03/01 07:43:49;;;;;;;27.35;14.70;;;;;;;;;;5056646;28;20451;-69
2022/03/01 07:46:15;;;;;;;25.98;15.10;;;;;;;;;;5056676;28;20060;-69
2022/03/01 07:48:42;;;;;;;23.48;13.98;;;;;;;;;;5056498;28;20041;-68
2022/03/01 07:51:08;;;;;;;22.45;13.63;;;;;;;;;;5056563;28;20021;-70
2022/03/01 07:53:34;;;;;;;22.13;13.38;;;;;;;;;;5056761;28;20067;-67
2022/03/01 07:56:01;;;;;;;24.52;12.35;;;;;;;;;;5056326;28;20025;-67
2022/03/01 07:58:27;;;;;;;21.02;12.15;;;;;;;;;;5056639;28;20495;-67
2022/03/01 08:00:53;;;;;;;24.27;14.23;;;;;;;;;;5056315;28;20512;-68
2022/03/01 08:03:19;;;;;;;21.35;12.63;;;;;;;;;;5056614;28;20021;-69
2022/03/01 08:05:45;;;;;;;25.42;13.23;;;;;;;;;;5055879;28;20151;-69
2022/03/01 08:08:13;;;;;;;24.45;13.48;;;;;;;;;;5056184;28;20028;-69
2022/03/01 08:10:39;;;;;;;26.48;12.82;;;;;;;;;;5056267;28;20017;-68
2022/03/01 08:13:06;;;;;;;23.30;13.25;;;;;;;;;;5055475;28;20108;-70
2022/03/01 08:15:32;;;;;;;22.60;13.05;;;;;;;;;;5055510;28;20101;-73
2022/03/01 08:17:58;;;;;;;23.90;13.25;;;;;;;;;;5054511;28;20029;-71
2022/03/01 08:20:25;;;;;;;25.52;14.80;;;;;;;;;;5055613;28;20028;-72
2022/03/01 08:22:51;;;;;;;22.58;13.60;;;;;;;;;;5055033;28;20616;-73
2022/03/01 08:25:18;;;;;;;20.95;13.60;;;;;;;;;;5055525;28;20079;-72
2022/03/01 08:27:44;;;;;;;28.05;15.68;;;;;;;;;;5054575;28;20037;-72
2022/03/01 08:30:10;;;;;;;21.85;13.48;;;;;;;;;;5054981;28;20028;-71
2022/03/01 08:32:36;;;;;;;25.70;14.63;;;;;;;;;;5054701;28;20393;-70
2022/03/01 08:35:03;;;;;;;26.83;15.43;;;;;;;;;;5036917;28;20029;-73
2022/03/01 08:37:29;;;;;;;23.40;13.48;;;;;;;;;;5054820;28;20032;-71
2022/03/01 08:39:54;;;;;;;23.02;13.70;;;;;;;;;;5055282;28;20029;-72
2022/03/01 08:42:21;;;;;;;31.92;17.05;;;;;;;;;;5055376;28;20477;-74
2022/03/01 08:44:47;;;;;;;25.00;14.02;;;;;;;;;;5055490;28;20524;-70
2022/03/01 08:47:13;;;;;;;26.35;16.20;;;;;;;;;;5055439;28;20473;-71
2022/03/01 08:49:39;;;;;;;27.60;13.27;;;;;;;;;;5055467;28;20072;-72
2022/03/01 08:52:05;;;;;;;22.77;12.13;;;;;;;;;;5055391;28;20108;-70
2022/03/01 08:54:31;;;;;;;23.98;12.75;;;;;;;;;;5055547;28;20366;-72
2022/03/01 08:56:57;;;;;;;26.08;13.23;;;;;;;;;;5055302;28;20112;-72
2022/03/01 08:59:24;;;;;;;21.98;13.27;;;;;;;;;;5055218;28;20061;-75
2022/03/01 09:01:50;;;;;;;22.83;13.32;;;;;;;;;;5055290;28;20452;-73
2022/03/01 09:04:16;;;;;;;24.33;14.00;;;;;;;;;;5054966;28;20044;-70
2022/03/01 09:06:42;;;;;;;19.25;11.93;;;;;;;;;;5055069;28;20036;-70
2022/03/01 09:09:08;;;;;;;20.55;12.40;;;;;;;;;;5054653;28;20025;-71
2022/03/01 09:11:34;;;;;;;26.30;17.02;;;;;;;;;;5055252;28;20036;-75
2022/03/01 09:14:00;;;;;;;26.13;16.08;;;;;;;;;;5052736;28;20104;-75
2022/03/01 09:16:26;;;;;;;26.77;16.25;;;;;;;;;;5055150;28;20052;-73
2022/03/01 09:18:52;;;;;;;21.67;11.98;;;;;;;;;;5046434;28;20026;-72
2022/03/01 09:21:18;;;;;;;23.92;12.43;;;;;;;;;;5053130;28;20534;-71
2022/03/01 09:23:44;;;;;;;23.58;13.18;;;;;;;;;;5054949;28;20041;-72
2022/03/01 09:26:11;;;;;;;21.08;10.75;;;;;;;;;;5054884;28;20032;-72
2022/03/01 09:28:37;;;;;;;23.67;12.15;;;;;;;;;;5036816;28;20111;-74
2022/03/01 09:31:03;;;;;;;19.75;10.85;;;;;;;;;;5054770;28;20047;-72
2022/03/01 09:33:29;;;;;;;20.30;10.90;;;;;;;;;;5054147;28;20072;-77
2022/03/01 09:35:55;;;;;;;20.02;10.75;;;;;;;;;;5054271;28;20028;-72
2022/03/01 09:38:24;;;;;;;19.98;12.75;;;;;;;;;;5054786;28;20044;-74
2022/03/01 09:40:50;;;;;;;20.88;13.73;;;;;;;;;;5035735;28;20119;-74
2022/03/01 09:43:16;;;;;;;29.20;15.43;;;;;;;;;;5054367;28;20047;-73
2022/03/01 09:45:42;;;;;;;20.42;11.43;;;;;;;;;;5054360;28;20429;-73
2022/03/01 09:48:09;;;;;;;17.95;10.55;;;;;;;;;;5054684;28;20025;-72
2022/03/01 09:50:35;;;;;;;18.85;11.07;;;;;;;;;;5054205;28;20032;-70
2022/03/01 09:53:01;;;;;;;21.80;14.70;;;;;;;;;;5054213;28;20025;-72
2022/03/01 09:55:28;;;;;;;19.85;11.32;;;;;;;;;;5055278;28;20025;-71
2022/03/01 09:57:55;;;;;;;22.85;12.75;;;;;;;;;;5054250;28;20025;-71
2022/03/01 10:00:21;;;;;;;19.33;11.32;;;;;;;;;;5054913;28;20025;-71
2022/03/01 10:02:53;;;;;;;21.92;11.73;;;;;;;;;;5054322;28;20028;-70
2022/03/01 10:05:19;;;;;;;17.65;11.00;;;;;;;;;;5053832;28;20520;-70
2022/03/01 10:07:46;;;;;;;22.73;12.10;;;;;;;;;;5054313;28;20028;-71
2022/03/01 10:10:16;;;;;;;20.83;11.60;;;;;;;;;;5035924;28;20036;-68
2022/03/01 10:12:42;;;;;;;16.60;10.43;;;;;;;;;;5054284;28;20017;-71
2022/03/01 10:15:10;;;;;;;19.92;11.60;;;;;;;;;;5054082;28;20048;-72
2022/03/01 10:17:37;;;;;;;18.73;11.50;;;;;;;;;;5053903;28;20489;-71
2022/03/01 10:20:06;;;;;;;17.48;10.35;;;;;;;;;;5053657;28;20025;-72
2022/03/01 10:22:32;;;;;;;22.48;10.55;;;;;;;;;;5053123;28;20029;-71
2022/03/01 10:25:02;;;;;;;18.92;9.65;;;;;;;;;;5053222;28;20496;-73
2022/03/01 10:27:29;;;;;;;20.67;10.57;;;;;;;;;;5035388;28;20440;-72
2022/03/01 10:29:55;;;;;;;17.83;9.98;;;;;;;;;;5053421;28;20091;-73
2022/03/01 10:32:21;;;;;;;18.58;9.55;;;;;;;;;;5053326;28;20084;-71
2022/03/01 10:35:02;;;;;;;18.58;9.85;;;;;;;;;;5053577;28;20060;-72
2022/03/01 10:37:29;;;;;;;20.17;10.20;;;;;;;;;;5053849;28;20370;-76
2022/03/01 10:40:15;;;;;;;16.95;9.35;;;;;;;;;;5053583;28;20064;-74
2022/03/01 10:42:42;;;;;;;17.70;9.65;;;;;;;;;;5053598;28;20484;-71
2022/03/01 10:45:09;;;;;;;13.90;8.02;;;;;;;;;;5053949;28;20029;-72
2022/03/01 10:47:35;;;;;;;20.25;9.80;;;;;;;;;;5053387;28;20100;-72
2022/03/01 10:50:06;;;;;;;16.63;8.85;;;;;;;;;;5052830;28;20025;-72
2022/03/01 10:52:34;;;;;;;16.23;9.20;;;;;;;;;;5052981;28;20523;-72
2022/03/01 10:55:01;;;;;;;16.88;9.77;;;;;;;;;;5053509;28;20082;-73
2022/03/01 10:57:27;;;;;;;16.65;10.02;;;;;;;;;;5053107;28;20508;-69
2022/03/01 10:59:53;;;;;;;21.63;11.02;;;;;;;;;;5053099;28;20404;-71
2022/03/01 11:02:19;;;;;;;23.30;11.05;;;;;;;;;;5053067;28;20136;-69
2022/03/01 11:04:46;;;;;;;19.90;10.98;;;;;;;;;;5053066;28;20053;-70
2022/03/01 11:07:13;;;;;;;21.85;11.40;;;;;;;;;;5053023;28;20049;-68
2022/03/01 11:09:39;;;;;;;16.85;10.02;;;;;;;;;;5052934;28;20482;-70
2022/03/01 11:12:07;;;;;;;18.70;9.80;;;;;;;;;;5053342;28;20017;-69
2022/03/01 11:14:51;;;;;;;15.70;9.23;;;;;;;;;;5052689;28;20029;-69
2022/03/01 11:17:41;;;;;;;15.93;8.38;;;;;;;;;;5052936;28;20025;-68
2022/03/01 11:20:08;;;;;;;13.85;8.40;;;;;;;;;;5053324;28;20051;-72
2022/03/01 11:22:53;;;;;;;14.50;7.57;;;;;;;;;;5052955;28;20029;-71
2022/03/01 11:25:23;;;;;;;15.93;7.07;;;;;;;;;;5053473;28;20048;-69
2022/03/01 11:27:50;;;;;;;14.80;8.05;;;;;;;;;;5052968;28;20021;-68
2022/03/01 11:30:17;;;;;;;14.13;7.53;;;;;;;;;;5052846;28;20029;-69
2022/03/01 11:32:44;;;;;;;15.98;8.35;;;;;;;;;;5053122;28;20021;-68
2022/03/01 11:35:22;;;;;;;17.65;8.23;;;;;;;;;;5052885;28;20389;-71
2022/03/01 11:37:58;;;;;;;15.02;8.18;;;;;;;;;;5034897;28;20024;-68
2022/03/01 11:40:25;;;;;;;14.65;8.50;;;;;;;;;;5052857;28;20108;-72
2022/03/01 11:42:51;;;;;;;13.02;8.20;;;;;;;;;;5034859;28;20037;-72
2022/03/01 11:45:18;;;;;;;18.50;9.32;;;;;;;;;;5052998;28;20070;-72
2022/03/01 11:47:44;;;;;;;20.15;11.23;;;;;;;;;;5052678;28;20033;-74
2022/03/01 11:50:12;;;;;;;21.73;11.02;;;;;;;;;;5052624;28;20036;-70
2022/03/01 11:52:49;;;;;;;20.92;11.00;;;;;;;;;;5034740;28;20025;-72
2022/03/01 11:55:16;;;;;;;19.58;11.20;;;;;;;;;;5052771;28;20028;-72
2022/03/01 11:57:43;;;;;;;20.13;11.60;;;;;;;;;;5052635;28;20018;-71
2022/03/01 12:00:09;;;;;;;22.55;12.25;;;;;;;;;;5052854;28;20429;-72
2022/03/01 12:02:35;;;;;;;20.02;10.65;;;;;;;;;;5053465;28;20108;-72
2022/03/01 12:05:03;;;;;;;21.25;11.75;;;;;;;;;;5056137;28;20087;-71
2022/03/01 12:07:32;;;;;;;22.98;11.07;;;;;;;;;;5056275;28;20025;-71
2022/03/01 12:09:59;;;;;;;21.88;11.32;;;;;;;;;;5056133;28;20082;-73
2022/03/01 12:12:32;;;;;;;31.85;17.45;;;;;;;;;;5056384;28;20021;-73
2022/03/01 12:14:59;;;;;;;21.73;12.35;;;;;;;;;;5056390;28;20025;-73
2022/03/01 12:17:25;;;;;;;19.38;10.30;;;;;;;;;;5056318;28;20021;-71
2022/03/01 12:20:00;;;;;;;37.67;20.13;;;;;;;;;;5056256;28;20029;-71
2022/03/01 12:22:26;;;;;;;22.00;11.32;;;;;;;;;;5038108;28;20442;-73
2022/03/01 12:24:52;;;;;;;17.25;11.13;;;;;;;;;;5055909;28;20036;-72
2022/03/01 12:27:19;;;;;;;22.30;9.10;;;;;;;;;;5055941;28;20029;-73
2022/03/01 12:29:46;;;;;;;17.33;10.00;;;;;;;;;;5055711;28;20037;-73
2022/03/01 12:32:13;;;;;;;18.25;10.55;;;;;;;;;;5056092;28;20017;-72
2022/03/01 12:34:40;;;;;;;19.52;11.25;;;;;;;;;;5056070;28;20095;-73
2022/03/01 12:37:06;;;;;;;15.90;9.73;;;;;;;;;;5037836;28;20052;-70
2022/03/01 12:39:33;;;;;;;19.33;9.60;;;;;;;;;;5055956;28;20032;-73
2022/03/01 12:41:59;;;;;;;15.13;9.95;;;;;;;;;;5055602;28;20358;-71
2022/03/01 12:44:27;;;;;;;20.58;10.05;;;;;;;;;;5055866;28;20032;-73
2022/03/01 12:46:54;;;;;;;15.48;9.02;;;;;;;;;;5055799;28;20108;-72
2022/03/01 12:49:20;;;;;;;17.88;10.02;;;;;;;;;;5037510;28;20033;-70
2022/03/01 12:51:47;;;;;;;19.38;11.00;;;;;;;;;;5055427;28;20017;-72
2022/03/01 12:54:15;;;;;;;21.73;12.65;;;;;;;;;;5055127;28;20033;-71
2022/03/01 12:56:43;;;;;;;26.15;14.43;;;;;;;;;;5055344;28;20048;-71
2022/03/01 12:59:15;;;;;;;29.38;16.35;;;;;;;;;;5037330;28;20379;-72
2022/03/01 13:01:43;;;;;;;23.90;14.77;;;;;;;;;;5055312;28;20025;-73
2022/03/01 13:04:09;;;;;;;24.17;13.45;;;;;;;;;;5054929;28;20048;-71
2022/03/01 13:06:36;;;;;;;19.50;10.05;;;;;;;;;;5055109;28;20029;-72
2022/03/01 13:09:03;;;;;;;19.23;9.23;;;;;;;;;;5037094;28;20400;-71
2022/03/01 13:11:29;;;;;;;16.13;8.35;;;;;;;;;;5055015;28;20087;-72
2022/03/01 13:14:04;;;;;;;17.98;8.52;;;;;;;;;;5055278;28;20032;-72
2022/03/01 13:16:31;;;;;;;15.93;8.73;;;;;;;;;;5055262;28;20014;-72
2022/03/01 13:19:01;;;;;;;14.77;8.80;;;;;;;;;;5055202;28;20025;-72
2022/03/01 13:21:34;;;;;;;15.25;9.35;;;;;;;;;;5055495;28;20013;-72
2022/03/01 13:24:01;;;;;;;16.40;9.00;;;;;;;;;;5054884;28;20056;-72
2022/03/01 13:26:27;;;;;;;17.08;10.60;;;;;;;;;;5054880;28;20025;-72
2022/03/01 13:28:54;;;;;;;16.05;10.30;;;;;;;;;;5054785;28;20020;-72
2022/03/01 13:31:28;;;;;;;18.13;9.40;;;;;;;;;;5054744;28;20047;-71
2022/03/01 13:33:58;;;;;;;15.93;8.93;;;;;;;;;;5037495;28;20037;-72
2022/03/01 13:36:24;;;;;;;;;;;;;;;;;;5055366;28;20135;-72
2022/03/01 13:39:19;;;;;;;18.00;9.25;;;;;;;;;;5054544;28;20381;-71
2022/03/01 13:41:49;;;;;;;17.08;8.40;;;;;;;;;;5033740;28;20067;-73
2022/03/01 13:44:17;;;;;;;16.83;8.88;;;;;;;;;;5054484;28;20063;-70
2022/03/01 13:46:52;;;;;;;17.63;9.00;;;;;;;;;;5054661;28;20029;-72
2022/03/01 13:49:24;;;;;;;19.83;9.98;;;;;;;;;;5054526;28;20028;-73
2022/03/01 13:51:50;;;;;;;20.40;8.70;;;;;;;;;;5054375;28;20021;-70
2022/03/01 13:54:16;;;;;;;15.55;8.82;;;;;;;;;;5054171;28;20070;-72
2022/03/01 13:56:47;;;;;;;17.67;7.50;;;;;;;;;;5054486;28;20029;-70
2022/03/01 13:59:19;;;;;;;12.93;7.18;;;;;;;;;;5054204;28;20032;-71
2022/03/01 14:01:48;;;;;;;16.08;7.03;;;;;;;;;;5054368;28;20504;-72
2022/03/01 14:04:15;;;;;;;16.35;7.53;;;;;;;;;;5054095;28;20124;-73
2022/03/01 14:06:51;;;;;;;15.55;7.78;;;;;;;;;;5053949;28;20033;-71
2022/03/01 14:09:17;;;;;;;13.63;7.30;;;;;;;;;;5035858;28;20025;-72
2022/03/01 14:11:53;;;;;;;15.13;7.03;;;;;;;;;;5053887;28;20052;-72
2022/03/01 14:14:20;;;;;;;14.25;8.63;;;;;;;;;;5054080;28;20095;-74
2022/03/01 14:16:47;;;;;;;14.95;8.13;;;;;;;;;;5035968;28;20023;-71
2022/03/01 14:19:13;;;;;;;14.10;6.68;;;;;;;;;;5053776;28;20178;-71
2022/03/01 14:21:40;;;;;;;14.15;7.35;;;;;;;;;;5053987;28;20446;-73